sensor_id;sensor_type;location;lat;lon;timestamp;P1;durP1;ratioP1;P2;durP2;ratioP2
30133;SDS011;16946;49.984;10.672;2023-07-22T00:00:15;4.23;;;3.33;;
30133;SDS011;16946;49.984;10.672;2023-07-22T00:00:45;3.92;;;3.53;;
30133;SDS011;16946;49.984;10.672;2023-07-22T00:01:16;3.57;;;3.27;;
30133;SDS011;16946;49.984;10.672;2023-07-22T00:01:47;3.57;;;3.23;;
30133;SDS011;16946;49.984;10.672;2023-07-22T00:02:18;3.73;;;3.10;;
30133;SDS011;16946;49.984;10.672;2023-07-22T00:02:48;5.73;;;3.30;;
30133;SDS011;16946;49.984;10.672;2023-07-22T00:03:19;4.23;;;3.50;;
30133;SDS011;16946;49.984;10.672;2023-07-22T00:03:49;3.93;;;3.43;;
30133;SDS011;16946;49.984;10.672;2023-07-22T00:04:20;3.50;;;3.20;;
30133;SDS011;16946;49.984;10.672;2023-07-22T00:04:50;4.73;;;3.77;;
30133;SDS011;16946;49.984;10.672;2023-07-22T00:05:22;3.80;;;3.50;;
30133;SDS011;16946;49.984;10.672;2023-07-22T00:06:26;4.15;;;3.63;;
30133;SDS011;16946;49.984;10.672;2023-07-22T00:06:50;5.47;;;3.65;;
30133;SDS011;16946;49.984;10.672;2023-07-22T00:07:20;4.00;;;3.57;;
30133;SDS011;16946;49.984;10.672;2023-07-22T00:07:51;4.23;;;3.30;;
30133;SDS011;16946;49.984;10.672;2023-07-22T00:08:22;6.45;;;3.50;;
30133;SDS011;16946;49.984;10.672;2023-07-22T00:08:53;4.47;;;3.80;;
30133;SDS011;16946;49.984;10.672;2023-07-22T00:09:23;4.53;;;4.03;;
30133;SDS011;16946;49.984;10.672;2023-07-22T00:09:54;3.77;;;3.40;;
30133;SDS011;16946;49.984;10.672;2023-07-22T00:10:24;4.97;;;3.73;;
30133;SDS011;16946;49.984;10.672;2023-07-22T00:10:55;5.70;;;3.80;;
30133;SDS011;16946;49.984;10.672;2023-07-22T00:11:25;3.87;;;3.47;;
30133;SDS011;16946;49.984;10.672;2023-07-22T00:11:56;7.30;;;3.67;;
30133;SDS011;16946;49.984;10.672;2023-07-22T00:12:27;5.80;;;4.03;;
30133;SDS011;16946;49.984;10.672;2023-07-22T00:12:57;3.70;;;3.40;;
30133;SDS011;16946;49.984;10.672;2023-07-22T00:13:28;6.13;;;4.23;;
30133;SDS011;16946;49.984;10.672;2023-07-22T00:13:59;4.60;;;3.67;;
30133;SDS011;16946;49.984;10.672;2023-07-22T00:14:29;5.27;;;3.70;;
30133;SDS011;16946;49.984;10.672;2023-07-22T00:15:00;4.47;;;3.50;;
30133;SDS011;16946;49.984;10.672;2023-07-22T00:15:31;7.10;;;3.20;;
30133;SDS011;16946;49.984;10.672;2023-07-22T00:16:01;4.53;;;3.30;;
30133;SDS011;16946;49.984;10.672;2023-07-22T00:16:34;5.65;;;3.75;;
30133;SDS011;16946;49.984;10.672;2023-07-22T00:17:05;3.87;;;3.27;;
30133;SDS011;16946;49.984;10.672;2023-07-22T00:17:35;4.03;;;3.43;;
30133;SDS011;16946;49.984;10.672;2023-07-22T00:18:06;4.03;;;3.30;;
30133;SDS011;16946;49.984;10.672;2023-07-22T00:18:37;3.10;;;2.80;;
30133;SDS011;16946;49.984;10.672;2023-07-22T00:19:08;3.80;;;3.40;;
30133;SDS011;16946;49.984;10.672;2023-07-22T00:19:38;5.57;;;2.87;;
30133;SDS011;16946;49.984;10.672;2023-07-22T00:20:09;4.07;;;3.20;;
30133;SDS011;16946;49.984;10.672;2023-07-22T00:20:41;4.20;;;3.80;;
30133;SDS011;16946;49.984;10.672;2023-07-22T00:21:11;5.73;;;3.20;;
30133;SDS011;16946;49.984;10.672;2023-07-22T00:21:42;3.57;;;3.10;;
30133;SDS011;16946;49.984;10.672;2023-07-22T00:22:12;3.37;;;3.07;;
30133;SDS011;16946;49.984;10.672;2023-07-22T00:22:43;4.30;;;3.00;;
30133;SDS011;16946;49.984;10.672;2023-07-22T00:23:14;6.67;;;3.80;;
30133;SDS011;16946;49.984;10.672;2023-07-22T00:23:45;6.32;;;3.22;;
30133;SDS011;16946;49.984;10.672;2023-07-22T00:24:16;5.37;;;3.30;;
30133;SDS011;16946;49.984;10.672;2023-07-22T00:24:46;3.70;;;3.37;;
30133;SDS011;16946;49.984;10.672;2023-07-22T00:25:17;5.37;;;3.70;;
30133;SDS011;16946;49.984;10.672;2023-07-22T00:25:48;3.77;;;3.47;;
30133;SDS011;16946;49.984;10.672;2023-07-22T00:26:19;6.60;;;3.27;;
30133;SDS011;16946;49.984;10.672;2023-07-22T00:26:49;4.73;;;3.57;;
30133;SDS011;16946;49.984;10.672;2023-07-22T00:27:20;4.03;;;3.20;;
30133;SDS011;16946;49.984;10.672;2023-07-22T00:27:50;4.37;;;3.60;;
30133;SDS011;16946;49.984;10.672;2023-07-22T00:28:21;5.37;;;3.30;;
30133;SDS011;16946;49.984;10.672;2023-07-22T00:28:51;3.47;;;3.00;;
30133;SDS011;16946;49.984;10.672;2023-07-22T00:29:22;5.03;;;3.30;;
30133;SDS011;16946;49.984;10.672;2023-07-22T00:29:52;3.73;;;3.37;;
30133;SDS011;16946;49.984;10.672;2023-07-22T00:30:23;3.70;;;3.13;;
30133;SDS011;16946;49.984;10.672;2023-07-22T00:30:55;3.65;;;3.35;;
30133;SDS011;16946;49.984;10.672;2023-07-22T00:31:27;5.22;;;3.33;;
30133;SDS011;16946;49.984;10.672;2023-07-22T00:31:57;7.97;;;3.60;;
30133;SDS011;16946;49.984;10.672;2023-07-22T00:32:28;4.57;;;3.00;;
30133;SDS011;16946;49.984;10.672;2023-07-22T00:32:59;4.13;;;3.40;;
30133;SDS011;16946;49.984;10.672;2023-07-22T00:33:29;3.93;;;3.40;;
30133;SDS011;16946;49.984;10.672;2023-07-22T00:34:00;3.80;;;3.50;;
30133;SDS011;16946;49.984;10.672;2023-07-22T00:34:30;3.43;;;3.10;;
30133;SDS011;16946;49.984;10.672;2023-07-22T00:35:03;4.18;;;3.60;;
30133;SDS011;16946;49.984;10.672;2023-07-22T00:35:35;3.92;;;3.40;;
30133;SDS011;16946;49.984;10.672;2023-07-22T00:36:05;3.43;;;3.03;;
30133;SDS011;16946;49.984;10.672;2023-07-22T00:36:36;4.37;;;3.57;;
30133;SDS011;16946;49.984;10.672;2023-07-22T00:37:08;3.85;;;3.30;;
30133;SDS011;16946;49.984;10.672;2023-07-22T00:37:38;3.63;;;3.33;;
30133;SDS011;16946;49.984;10.672;2023-07-22T00:38:09;4.37;;;3.17;;
30133;SDS011;16946;49.984;10.672;2023-07-22T00:38:39;4.60;;;3.10;;
30133;SDS011;16946;49.984;10.672;2023-07-22T00:39:10;3.47;;;3.17;;
30133;SDS011;16946;49.984;10.672;2023-07-22T00:39:44;3.53;;;3.22;;
30133;SDS011;16946;49.984;10.672;2023-07-22T00:40:15;5.13;;;3.43;;
30133;SDS011;16946;49.984;10.672;2023-07-22T00:40:45;3.67;;;3.37;;
30133;SDS011;16946;49.984;10.672;2023-07-22T00:41:16;4.90;;;3.23;;
30133;SDS011;16946;49.984;10.672;2023-07-22T00:41:46;3.60;;;3.30;;
30133;SDS011;16946;49.984;10.672;2023-07-22T00:42:17;3.37;;;3.07;;
30133;SDS011;16946;49.984;10.672;2023-07-22T00:42:48;3.90;;;3.50;;
30133;SDS011;16946;49.984;10.672;2023-07-22T00:43:18;3.60;;;3.17;;
30133;SDS011;16946;49.984;10.672;2023-07-22T00:43:49;5.67;;;3.10;;
30133;SDS011;16946;49.984;10.672;2023-07-22T00:44:19;4.37;;;3.83;;
30133;SDS011;16946;49.984;10.672;2023-07-22T00:44:50;5.03;;;3.50;;
30133;SDS011;16946;49.984;10.672;2023-07-22T00:45:20;6.20;;;3.73;;
30133;SDS011;16946;49.984;10.672;2023-07-22T00:45:51;4.87;;;3.43;;
30133;SDS011;16946;49.984;10.672;2023-07-22T00:46:22;4.43;;;3.20;;
30133;SDS011;16946;49.984;10.672;2023-07-22T00:46:56;4.13;;;3.83;;
30133;SDS011;16946;49.984;10.672;2023-07-22T00:47:27;3.65;;;3.33;;
30133;SDS011;16946;49.984;10.672;2023-07-22T00:47:58;4.47;;;3.70;;
30133;SDS011;16946;49.984;10.672;2023-07-22T00:48:29;4.60;;;3.93;;
30133;SDS011;16946;49.984;10.672;2023-07-22T00:49:01;4.32;;;3.70;;
30133;SDS011;16946;49.984;10.672;2023-07-22T00:49:32;5.32;;;3.72;;
30133;SDS011;16946;49.984;10.672;2023-07-22T00:50:03;5.88;;;4.28;;
30133;SDS011;16946;49.984;10.672;2023-07-22T00:50:36;3.50;;;2.90;;
30133;SDS011;16946;49.984;10.672;2023-07-22T00:51:06;6.70;;;3.80;;
30133;SDS011;16946;49.984;10.672;2023-07-22T00:51:37;6.47;;;3.70;;
30133;SDS011;16946;49.984;10.672;2023-07-22T00:52:08;4.47;;;4.00;;
30133;SDS011;16946;49.984;10.672;2023-07-22T00:52:38;6.90;;;3.40;;
30133;SDS011;16946;49.984;10.672;2023-07-22T00:53:09;3.93;;;3.37;;
30133;SDS011;16946;49.984;10.672;2023-07-22T00:53:40;4.90;;;3.83;;
30133;SDS011;16946;49.984;10.672;2023-07-22T00:54:10;6.70;;;3.27;;
30133;SDS011;16946;49.984;10.672;2023-07-22T00:54:41;3.40;;;3.10;;
30133;SDS011;16946;49.984;10.672;2023-07-22T00:55:12;5.07;;;3.93;;
30133;SDS011;16946;49.984;10.672;2023-07-22T00:55:42;3.77;;;3.47;;
30133;SDS011;16946;49.984;10.672;2023-07-22T00:56:14;7.82;;;3.72;;
30133;SDS011;16946;49.984;10.672;2023-07-22T00:56:45;5.10;;;3.67;;
30133;SDS011;16946;49.984;10.672;2023-07-22T00:57:17;5.13;;;3.83;;
30133;SDS011;16946;49.984;10.672;2023-07-22T00:57:49;3.60;;;3.20;;
30133;SDS011;16946;49.984;10.672;2023-07-22T00:58:20;5.23;;;3.33;;
30133;SDS011;16946;49.984;10.672;2023-07-22T00:58:51;3.35;;;3.08;;
30133;SDS011;16946;49.984;10.672;2023-07-22T00:59:22;4.93;;;3.50;;
30133;SDS011;16946;49.984;10.672;2023-07-22T00:59:54;4.97;;;3.45;;
30133;SDS011;16946;49.984;10.672;2023-07-22T01:00:25;4.22;;;3.33;;
30133;SDS011;16946;49.984;10.672;2023-07-22T01:00:56;6.13;;;3.47;;
30133;SDS011;16946;49.984;10.672;2023-07-22T01:01:26;4.67;;;3.67;;
30133;SDS011;16946;49.984;10.672;2023-07-22T01:01:57;7.93;;;3.40;;
30133;SDS011;16946;49.984;10.672;2023-07-22T01:02:27;5.70;;;3.67;;
30133;SDS011;16946;49.984;10.672;2023-07-22T01:02:59;5.90;;;4.00;;
30133;SDS011;16946;49.984;10.672;2023-07-22T01:03:30;5.28;;;3.95;;
30133;SDS011;16946;49.984;10.672;2023-07-22T01:04:01;4.07;;;3.60;;
30133;SDS011;16946;49.984;10.672;2023-07-22T01:04:34;5.45;;;3.97;;
30133;SDS011;16946;49.984;10.672;2023-07-22T01:05:05;7.63;;;3.90;;
30133;SDS011;16946;49.984;10.672;2023-07-22T01:05:36;4.05;;;3.63;;
30133;SDS011;16946;49.984;10.672;2023-07-22T01:06:07;4.18;;;3.33;;
30133;SDS011;16946;49.984;10.672;2023-07-22T01:06:39;3.63;;;3.33;;
30133;SDS011;16946;49.984;10.672;2023-07-22T01:07:10;4.00;;;3.60;;
30133;SDS011;16946;49.984;10.672;2023-07-22T01:07:40;5.27;;;3.70;;
30133;SDS011;16946;49.984;10.672;2023-07-22T01:08:12;7.38;;;3.72;;
30133;SDS011;16946;49.984;10.672;2023-07-22T01:08:43;3.97;;;3.67;;
30133;SDS011;16946;49.984;10.672;2023-07-22T01:09:13;4.93;;;3.57;;
30133;SDS011;16946;49.984;10.672;2023-07-22T01:09:44;4.43;;;4.03;;
30133;SDS011;16946;49.984;10.672;2023-07-22T01:10:15;4.07;;;3.50;;
30133;SDS011;16946;49.984;10.672;2023-07-22T01:10:45;4.77;;;3.60;;
30133;SDS011;16946;49.984;10.672;2023-07-22T01:11:18;3.90;;;3.50;;
30133;SDS011;16946;49.984;10.672;2023-07-22T01:11:48;4.97;;;3.80;;
30133;SDS011;16946;49.984;10.672;2023-07-22T01:12:19;4.90;;;3.20;;
30133;SDS011;16946;49.984;10.672;2023-07-22T01:12:49;3.80;;;3.50;;
30133;SDS011;16946;49.984;10.672;2023-07-22T01:13:20;4.13;;;3.23;;
30133;SDS011;16946;49.984;10.672;2023-07-22T01:13:51;4.13;;;3.10;;
30133;SDS011;16946;49.984;10.672;2023-07-22T01:14:22;5.60;;;3.47;;
30133;SDS011;16946;49.984;10.672;2023-07-22T01:14:53;4.73;;;3.40;;
30133;SDS011;16946;49.984;10.672;2023-07-22T01:15:24;4.07;;;3.37;;
30133;SDS011;16946;49.984;10.672;2023-07-22T01:15:55;4.82;;;3.80;;
30133;SDS011;16946;49.984;10.672;2023-07-22T01:16:26;4.63;;;3.30;;
30133;SDS011;16946;49.984;10.672;2023-07-22T01:16:58;4.32;;;3.33;;
30133;SDS011;16946;49.984;10.672;2023-07-22T01:17:29;6.30;;;3.60;;
30133;SDS011;16946;49.984;10.672;2023-07-22T01:17:59;3.33;;;3.03;;
30133;SDS011;16946;49.984;10.672;2023-07-22T01:18:32;4.88;;;3.20;;
30133;SDS011;16946;49.984;10.672;2023-07-22T01:19:04;4.00;;;3.35;;
30133;SDS011;16946;49.984;10.672;2023-07-22T01:19:35;3.28;;;2.97;;
30133;SDS011;16946;49.984;10.672;2023-07-22T01:20:09;3.85;;;3.42;;
30133;SDS011;16946;49.984;10.672;2023-07-22T01:20:40;3.92;;;3.63;;
30133;SDS011;16946;49.984;10.672;2023-07-22T01:21:11;5.47;;;4.03;;
30133;SDS011;16946;49.984;10.672;2023-07-22T01:21:42;4.32;;;3.55;;
30133;SDS011;16946;49.984;10.672;2023-07-22T01:22:13;3.90;;;3.50;;
30133;SDS011;16946;49.984;10.672;2023-07-22T01:22:52;4.80;;;3.43;;
30133;SDS011;16946;49.984;10.672;2023-07-22T01:23:24;3.72;;;3.35;;
30133;SDS011;16946;49.984;10.672;2023-07-22T01:23:55;3.87;;;3.40;;
30133;SDS011;16946;49.984;10.672;2023-07-22T01:24:27;3.67;;;3.38;;
30133;SDS011;16946;49.984;10.672;2023-07-22T01:24:59;5.18;;;2.85;;
30133;SDS011;16946;49.984;10.672;2023-07-22T01:25:31;4.00;;;3.33;;
30133;SDS011;16946;49.984;10.672;2023-07-22T01:26:01;5.50;;;3.93;;
30133;SDS011;16946;49.984;10.672;2023-07-22T01:26:33;3.75;;;3.45;;
30133;SDS011;16946;49.984;10.672;2023-07-22T01:27:03;4.00;;;3.30;;
30133;SDS011;16946;49.984;10.672;2023-07-22T01:27:38;4.43;;;3.70;;
30133;SDS011;16946;49.984;10.672;2023-07-22T01:28:09;3.33;;;3.03;;
30133;SDS011;16946;49.984;10.672;2023-07-22T01:28:41;4.35;;;2.90;;
30133;SDS011;16946;49.984;10.672;2023-07-22T01:29:11;5.50;;;3.57;;
30133;SDS011;16946;49.984;10.672;2023-07-22T01:29:42;4.93;;;3.30;;
30133;SDS011;16946;49.984;10.672;2023-07-22T01:30:13;5.07;;;3.30;;
30133;SDS011;16946;49.984;10.672;2023-07-22T01:30:44;3.10;;;2.83;;
30133;SDS011;16946;49.984;10.672;2023-07-22T01:31:15;4.32;;;3.22;;
30133;SDS011;16946;49.984;10.672;2023-07-22T01:31:46;4.57;;;3.43;;
30133;SDS011;16946;49.984;10.672;2023-07-22T01:32:19;6.28;;;3.72;;
30133;SDS011;16946;49.984;10.672;2023-07-22T01:32:52;4.80;;;3.10;;
30133;SDS011;16946;49.984;10.672;2023-07-22T01:33:23;4.70;;;3.17;;
30133;SDS011;16946;49.984;10.672;2023-07-22T01:33:53;2.97;;;2.67;;
30133;SDS011;16946;49.984;10.672;2023-07-22T01:34:24;3.23;;;2.93;;
30133;SDS011;16946;49.984;10.672;2023-07-22T01:34:54;5.43;;;3.77;;
30133;SDS011;16946;49.984;10.672;2023-07-22T01:35:25;4.00;;;3.50;;
30133;SDS011;16946;49.984;10.672;2023-07-22T01:35:56;3.95;;;3.28;;
30133;SDS011;16946;49.984;10.672;2023-07-22T01:36:27;4.67;;;3.07;;
30133;SDS011;16946;49.984;10.672;2023-07-22T01:36:57;3.33;;;3.03;;
30133;SDS011;16946;49.984;10.672;2023-07-22T01:37:28;4.63;;;3.27;;
30133;SDS011;16946;49.984;10.672;2023-07-22T01:37:58;3.40;;;3.10;;
30133;SDS011;16946;49.984;10.672;2023-07-22T01:38:29;5.47;;;3.63;;
30133;SDS011;16946;49.984;10.672;2023-07-22T01:39:01;3.80;;;3.50;;
30133;SDS011;16946;49.984;10.672;2023-07-22T01:39:31;3.90;;;3.10;;
30133;SDS011;16946;49.984;10.672;2023-07-22T01:40:02;4.20;;;3.27;;
30133;SDS011;16946;49.984;10.672;2023-07-22T01:40:42;3.80;;;3.45;;
30133;SDS011;16946;49.984;10.672;2023-07-22T01:41:13;4.77;;;3.10;;
30133;SDS011;16946;49.984;10.672;2023-07-22T01:41:44;5.20;;;3.80;;
30133;SDS011;16946;49.984;10.672;2023-07-22T01:42:14;7.67;;;3.43;;
30133;SDS011;16946;49.984;10.672;2023-07-22T01:42:45;4.50;;;3.43;;
30133;SDS011;16946;49.984;10.672;2023-07-22T01:43:15;5.97;;;3.90;;
30133;SDS011;16946;49.984;10.672;2023-07-22T01:43:46;6.97;;;3.73;;
30133;SDS011;16946;49.984;10.672;2023-07-22T01:44:16;4.23;;;3.77;;
30133;SDS011;16946;49.984;10.672;2023-07-22T01:44:47;4.20;;;3.87;;
30133;SDS011;16946;49.984;10.672;2023-07-22T01:45:17;5.43;;;3.50;;
30133;SDS011;16946;49.984;10.672;2023-07-22T01:45:48;5.43;;;3.53;;
30133;SDS011;16946;49.984;10.672;2023-07-22T01:46:18;6.40;;;3.60;;
30133;SDS011;16946;49.984;10.672;2023-07-22T01:46:49;4.07;;;3.47;;
30133;SDS011;16946;49.984;10.672;2023-07-22T01:47:20;5.23;;;3.67;;
30133;SDS011;16946;49.984;10.672;2023-07-22T01:47:51;4.67;;;3.43;;
30133;SDS011;16946;49.984;10.672;2023-07-22T01:48:21;3.83;;;3.37;;
30133;SDS011;16946;49.984;10.672;2023-07-22T01:48:52;4.43;;;3.33;;
30133;SDS011;16946;49.984;10.672;2023-07-22T01:49:22;16.63;;;3.70;;
30133;SDS011;16946;49.984;10.672;2023-07-22T01:49:54;3.97;;;3.58;;
30133;SDS011;16946;49.984;10.672;2023-07-22T01:50:25;5.43;;;3.13;;
30133;SDS011;16946;49.984;10.672;2023-07-22T01:50:55;4.60;;;3.83;;
30133;SDS011;16946;49.984;10.672;2023-07-22T01:51:26;5.07;;;3.77;;
30133;SDS011;16946;49.984;10.672;2023-07-22T01:51:56;4.07;;;3.30;;
30133;SDS011;16946;49.984;10.672;2023-07-22T01:52:27;6.23;;;3.67;;
30133;SDS011;16946;49.984;10.672;2023-07-22T01:52:57;5.10;;;4.00;;
30133;SDS011;16946;49.984;10.672;2023-07-22T01:53:28;5.80;;;3.57;;
30133;SDS011;16946;49.984;10.672;2023-07-22T01:53:59;4.60;;;3.53;;
30133;SDS011;16946;49.984;10.672;2023-07-22T01:54:29;6.73;;;3.40;;
30133;SDS011;16946;49.984;10.672;2023-07-22T01:55:00;4.53;;;3.47;;
30133;SDS011;16946;49.984;10.672;2023-07-22T01:55:31;3.63;;;3.10;;
30133;SDS011;16946;49.984;10.672;2023-07-22T01:56:02;5.60;;;3.75;;
30133;SDS011;16946;49.984;10.672;2023-07-22T01:56:32;4.63;;;3.90;;
30133;SDS011;16946;49.984;10.672;2023-07-22T01:57:03;4.73;;;3.90;;
30133;SDS011;16946;49.984;10.672;2023-07-22T01:57:34;4.43;;;3.90;;
30133;SDS011;16946;49.984;10.672;2023-07-22T01:58:05;4.43;;;4.03;;
30133;SDS011;16946;49.984;10.672;2023-07-22T01:58:35;5.57;;;3.87;;
30133;SDS011;16946;49.984;10.672;2023-07-22T01:59:06;4.50;;;3.87;;
30133;SDS011;16946;49.984;10.672;2023-07-22T01:59:36;8.37;;;4.00;;
30133;SDS011;16946;49.984;10.672;2023-07-22T02:00:07;5.83;;;4.27;;
30133;SDS011;16946;49.984;10.672;2023-07-22T02:00:40;6.97;;;4.07;;
30133;SDS011;16946;49.984;10.672;2023-07-22T02:01:11;4.73;;;4.00;;
30133;SDS011;16946;49.984;10.672;2023-07-22T02:01:45;6.78;;;3.67;;
30133;SDS011;16946;49.984;10.672;2023-07-22T02:02:15;5.03;;;3.97;;
30133;SDS011;16946;49.984;10.672;2023-07-22T02:02:46;6.80;;;3.83;;
30133;SDS011;16946;49.984;10.672;2023-07-22T02:03:17;9.17;;;4.23;;
30133;SDS011;16946;49.984;10.672;2023-07-22T02:03:47;6.73;;;4.13;;
30133;SDS011;16946;49.984;10.672;2023-07-22T02:04:18;4.43;;;4.03;;
30133;SDS011;16946;49.984;10.672;2023-07-22T02:04:48;6.33;;;4.50;;
30133;SDS011;16946;49.984;10.672;2023-07-22T02:05:19;5.60;;;4.70;;
30133;SDS011;16946;49.984;10.672;2023-07-22T02:05:51;4.82;;;4.07;;
30133;SDS011;16946;49.984;10.672;2023-07-22T02:06:21;5.80;;;4.23;;
30133;SDS011;16946;49.984;10.672;2023-07-22T02:06:52;5.85;;;4.55;;
30133;SDS011;16946;49.984;10.672;2023-07-22T02:07:23;7.85;;;4.38;;
30133;SDS011;16946;49.984;10.672;2023-07-22T02:07:56;4.75;;;3.92;;
30133;SDS011;16946;49.984;10.672;2023-07-22T02:08:27;4.83;;;4.20;;
30133;SDS011;16946;49.984;10.672;2023-07-22T02:08:57;6.33;;;3.67;;
30133;SDS011;16946;49.984;10.672;2023-07-22T02:09:28;8.03;;;4.00;;
30133;SDS011;16946;49.984;10.672;2023-07-22T02:09:58;6.37;;;4.20;;
30133;SDS011;16946;49.984;10.672;2023-07-22T02:10:29;6.00;;;4.07;;
30133;SDS011;16946;49.984;10.672;2023-07-22T02:11:01;4.40;;;4.00;;
30133;SDS011;16946;49.984;10.672;2023-07-22T02:11:36;5.00;;;4.50;;
30133;SDS011;16946;49.984;10.672;2023-07-22T02:12:07;4.93;;;4.03;;
30133;SDS011;16946;49.984;10.672;2023-07-22T02:12:38;4.95;;;4.13;;
30133;SDS011;16946;49.984;10.672;2023-07-22T02:13:09;4.70;;;4.10;;
30133;SDS011;16946;49.984;10.672;2023-07-22T02:13:39;4.97;;;4.13;;
30133;SDS011;16946;49.984;10.672;2023-07-22T02:14:10;6.30;;;3.77;;
30133;SDS011;16946;49.984;10.672;2023-07-22T02:14:40;4.53;;;4.13;;
30133;SDS011;16946;49.984;10.672;2023-07-22T02:15:11;5.40;;;3.97;;
30133;SDS011;16946;49.984;10.672;2023-07-22T02:15:41;4.37;;;3.93;;
30133;SDS011;16946;49.984;10.672;2023-07-22T02:16:12;6.60;;;3.53;;
30133;SDS011;16946;49.984;10.672;2023-07-22T02:16:43;4.17;;;3.77;;
30133;SDS011;16946;49.984;10.672;2023-07-22T02:17:13;4.20;;;3.80;;
30133;SDS011;16946;49.984;10.672;2023-07-22T02:17:44;5.33;;;3.87;;
30133;SDS011;16946;49.984;10.672;2023-07-22T02:18:14;5.27;;;4.50;;
30133;SDS011;16946;49.984;10.672;2023-07-22T02:18:45;4.75;;;4.35;;
30133;SDS011;16946;49.984;10.672;2023-07-22T02:19:17;6.22;;;4.72;;
30133;SDS011;16946;49.984;10.672;2023-07-22T02:19:47;9.07;;;5.60;;
30133;SDS011;16946;49.984;10.672;2023-07-22T02:20:18;6.00;;;4.60;;
30133;SDS011;16946;49.984;10.672;2023-07-22T02:20:49;4.60;;;4.00;;
30133;SDS011;16946;49.984;10.672;2023-07-22T02:21:19;5.00;;;4.07;;
30133;SDS011;16946;49.984;10.672;2023-07-22T02:21:50;5.27;;;3.97;;
30133;SDS011;16946;49.984;10.672;2023-07-22T02:22:20;5.00;;;3.70;;
30133;SDS011;16946;49.984;10.672;2023-07-22T02:22:51;4.97;;;4.37;;
30133;SDS011;16946;49.984;10.672;2023-07-22T02:23:21;4.30;;;3.90;;
30133;SDS011;16946;49.984;10.672;2023-07-22T02:23:53;5.53;;;3.97;;
30133;SDS011;16946;49.984;10.672;2023-07-22T02:24:23;4.13;;;3.73;;
30133;SDS011;16946;49.984;10.672;2023-07-22T02:24:54;9.83;;;4.30;;
30133;SDS011;16946;49.984;10.672;2023-07-22T02:25:24;5.00;;;4.53;;
30133;SDS011;16946;49.984;10.672;2023-07-22T02:25:55;5.30;;;4.10;;
30133;SDS011;16946;49.984;10.672;2023-07-22T02:26:25;4.40;;;4.03;;
30133;SDS011;16946;49.984;10.672;2023-07-22T02:26:56;5.50;;;4.40;;
30133;SDS011;16946;49.984;10.672;2023-07-22T02:27:26;5.07;;;4.57;;
30133;SDS011;16946;49.984;10.672;2023-07-22T02:27:57;6.93;;;3.97;;
30133;SDS011;16946;49.984;10.672;2023-07-22T02:28:27;5.53;;;4.07;;
30133;SDS011;16946;49.984;10.672;2023-07-22T02:28:58;6.80;;;4.50;;
30133;SDS011;16946;49.984;10.672;2023-07-22T02:29:28;5.93;;;4.33;;
30133;SDS011;16946;49.984;10.672;2023-07-22T02:30:01;6.20;;;3.90;;
30133;SDS011;16946;49.984;10.672;2023-07-22T02:30:34;4.70;;;4.13;;
30133;SDS011;16946;49.984;10.672;2023-07-22T02:31:05;6.78;;;4.30;;
30133;SDS011;16946;49.984;10.672;2023-07-22T02:31:37;4.35;;;3.95;;
30133;SDS011;16946;49.984;10.672;2023-07-22T02:32:07;5.63;;;4.67;;
30133;SDS011;16946;49.984;10.672;2023-07-22T02:32:39;7.27;;;5.20;;
30133;SDS011;16946;49.984;10.672;2023-07-22T02:33:10;5.10;;;4.70;;
30133;SDS011;16946;49.984;10.672;2023-07-22T02:33:41;5.27;;;4.40;;
30133;SDS011;16946;49.984;10.672;2023-07-22T02:34:11;5.10;;;3.80;;
30133;SDS011;16946;49.984;10.672;2023-07-22T02:34:42;4.28;;;3.88;;
30133;SDS011;16946;49.984;10.672;2023-07-22T02:35:13;4.43;;;3.87;;
30133;SDS011;16946;49.984;10.672;2023-07-22T02:35:43;5.40;;;3.53;;
30133;SDS011;16946;49.984;10.672;2023-07-22T02:36:14;4.17;;;3.73;;
30133;SDS011;16946;49.984;10.672;2023-07-22T02:36:45;3.87;;;3.57;;
30133;SDS011;16946;49.984;10.672;2023-07-22T02:37:15;4.77;;;3.93;;
30133;SDS011;16946;49.984;10.672;2023-07-22T02:37:46;7.40;;;4.13;;
30133;SDS011;16946;49.984;10.672;2023-07-22T02:38:16;4.33;;;3.93;;
30133;SDS011;16946;49.984;10.672;2023-07-22T02:38:47;4.47;;;4.17;;
30133;SDS011;16946;49.984;10.672;2023-07-22T02:39:17;5.23;;;4.00;;
30133;SDS011;16946;49.984;10.672;2023-07-22T02:39:48;5.60;;;4.37;;
30133;SDS011;16946;49.984;10.672;2023-07-22T02:40:18;5.47;;;4.23;;
30133;SDS011;16946;49.984;10.672;2023-07-22T02:40:49;4.93;;;4.10;;
30133;SDS011;16946;49.984;10.672;2023-07-22T02:41:20;5.97;;;3.47;;
30133;SDS011;16946;49.984;10.672;2023-07-22T02:41:51;4.78;;;4.22;;
30133;SDS011;16946;49.984;10.672;2023-07-22T02:42:22;4.40;;;4.00;;
30133;SDS011;16946;49.984;10.672;2023-07-22T02:42:52;7.77;;;4.30;;
30133;SDS011;16946;49.984;10.672;2023-07-22T02:43:23;4.20;;;3.43;;
30133;SDS011;16946;49.984;10.672;2023-07-22T02:43:53;4.27;;;3.87;;
30133;SDS011;16946;49.984;10.672;2023-07-22T02:44:24;4.80;;;4.40;;
30133;SDS011;16946;49.984;10.672;2023-07-22T02:44:54;5.20;;;3.70;;
30133;SDS011;16946;49.984;10.672;2023-07-22T02:45:25;6.73;;;4.40;;
30133;SDS011;16946;49.984;10.672;2023-07-22T02:45:56;4.30;;;3.90;;
30133;SDS011;16946;49.984;10.672;2023-07-22T02:46:26;4.50;;;3.80;;
30133;SDS011;16946;49.984;10.672;2023-07-22T02:46:57;5.27;;;4.10;;
30133;SDS011;16946;49.984;10.672;2023-07-22T02:47:28;4.47;;;3.90;;
30133;SDS011;16946;49.984;10.672;2023-07-22T02:47:58;6.80;;;4.37;;
30133;SDS011;16946;49.984;10.672;2023-07-22T02:48:29;5.80;;;4.17;;
30133;SDS011;16946;49.984;10.672;2023-07-22T02:49:03;5.50;;;4.32;;
30133;SDS011;16946;49.984;10.672;2023-07-22T02:49:34;4.77;;;4.20;;
30133;SDS011;16946;49.984;10.672;2023-07-22T02:50:05;6.10;;;4.17;;
30133;SDS011;16946;49.984;10.672;2023-07-22T02:50:36;4.20;;;3.80;;
30133;SDS011;16946;49.984;10.672;2023-07-22T02:51:08;4.47;;;4.03;;
30133;SDS011;16946;49.984;10.672;2023-07-22T02:51:40;4.75;;;4.35;;
30133;SDS011;16946;49.984;10.672;2023-07-22T02:52:11;5.97;;;4.27;;
30133;SDS011;16946;49.984;10.672;2023-07-22T02:52:41;4.33;;;3.93;;
30133;SDS011;16946;49.984;10.672;2023-07-22T02:53:12;7.07;;;5.07;;
30133;SDS011;16946;49.984;10.672;2023-07-22T02:53:42;4.47;;;4.00;;
30133;SDS011;16946;49.984;10.672;2023-07-22T02:54:14;6.38;;;4.32;;
30133;SDS011;16946;49.984;10.672;2023-07-22T02:54:54;4.30;;;3.90;;
30133;SDS011;16946;49.984;10.672;2023-07-22T02:55:36;5.35;;;4.10;;
30133;SDS011;16946;49.984;10.672;2023-07-22T02:56:07;6.90;;;4.57;;
30133;SDS011;16946;49.984;10.672;2023-07-22T02:56:38;5.30;;;4.80;;
30133;SDS011;16946;49.984;10.672;2023-07-22T02:57:08;7.40;;;4.90;;
30133;SDS011;16946;49.984;10.672;2023-07-22T02:57:39;6.23;;;5.60;;
30133;SDS011;16946;49.984;10.672;2023-07-22T02:58:11;7.60;;;5.75;;
30133;SDS011;16946;49.984;10.672;2023-07-22T02:58:42;7.70;;;6.22;;
30133;SDS011;16946;49.984;10.672;2023-07-22T02:59:13;6.13;;;5.60;;
30133;SDS011;16946;49.984;10.672;2023-07-22T02:59:44;6.93;;;6.33;;
30133;SDS011;16946;49.984;10.672;2023-07-22T03:00:16;6.73;;;5.73;;
30133;SDS011;16946;49.984;10.672;2023-07-22T03:00:53;8.85;;;5.70;;
30133;SDS011;16946;49.984;10.672;2023-07-22T03:01:23;6.47;;;5.87;;
30133;SDS011;16946;49.984;10.672;2023-07-22T03:01:54;6.67;;;5.97;;
30133;SDS011;16946;49.984;10.672;2023-07-22T03:02:27;7.10;;;6.43;;
30133;SDS011;16946;49.984;10.672;2023-07-22T03:02:59;9.40;;;7.10;;
30133;SDS011;16946;49.984;10.672;2023-07-22T03:03:32;8.35;;;7.50;;
30133;SDS011;16946;49.984;10.672;2023-07-22T03:04:05;8.45;;;6.93;;
30133;SDS011;16946;49.984;10.672;2023-07-22T03:04:36;8.07;;;6.80;;